Time;durP1;ratioP1;P1;durP2;ratioP2;P2;SDS_P1;SDS_P2;PMS_P1;PMS_P2;Temp;Humidity;BMP_temperature;BMP_pressure;BME280_temperature;BME280_humidity;BME280_pressure;Samples;Min_cycle;Max_cycle;Signal;HPM_P1;HPM_P2
2021/11/27 00:00:14;;;;;;;4.93;3.20;;;5.20;99.90;;;;;;4904993;29;20490;-66
2021/11/27 00:02:43;;;;;;;9.03;4.20;;;5.10;99.90;;;;;;4905553;29;20964;-66
2021/11/27 00:05:11;;;;;;;7.37;3.47;;;5.10;99.90;;;;;;4905429;29;20486;-61
2021/11/27 00:07:38;;;;;;;5.20;3.43;;;5.10;99.90;;;;;;4905220;29;20549;-62
2021/11/27 00:10:07;;;;;;;7.80;3.93;;;5.10;99.90;;;;;;4905558;29;20446;-66
2021/11/27 00:12:34;;;;;;;8.50;4.20;;;5.10;99.90;;;;;;4906254;29;20465;-69
2021/11/27 00:15:01;;;;;;;9.00;5.77;;;5.10;99.90;;;;;;4905336;29;20508;-66
2021/11/27 00:17:28;;;;;;;6.17;4.03;;;5.10;99.90;;;;;;4904406;29;20506;-66
2021/11/27 00:19:57;;;;;;;7.40;4.60;;;5.10;99.90;;;;;;4905011;29;20526;-65
2021/11/27 00:22:24;;;;;;;7.57;4.40;;;5.00;99.90;;;;;;4905112;29;20510;-66
2021/11/27 00:24:50;;;;;;;6.87;3.87;;;5.10;99.90;;;;;;4905055;29;20478;-60
2021/11/27 00:27:17;;;;;;;5.27;3.87;;;5.10;99.90;;;;;;4905325;29;20517;-63
2021/11/27 00:29:44;;;;;;;6.87;4.87;;;5.10;99.90;;;;;;4905350;29;20458;-66
2021/11/27 00:32:11;;;;;;;6.60;4.67;;;5.10;99.90;;;;;;4904959;29;20836;-66
2021/11/27 00:34:38;;;;;;;5.37;4.20;;;5.10;99.90;;;;;;4904979;29;20525;-65
2021/11/27 00:37:07;;;;;;;7.73;4.50;;;5.20;99.90;;;;;;4905383;29;20462;-65
2021/11/27 00:39:34;;;;;;;7.90;3.80;;;5.10;99.90;;;;;;4906514;29;20660;-67
2021/11/27 00:42:00;;;;;;;11.00;4.30;;;5.10;99.90;;;;;;4905064;29;20478;-66
2021/11/27 00:44:28;;;;;;;7.03;4.53;;;5.20;99.90;;;;;;4905085;29;20450;-65
2021/11/27 00:46:55;;;;;;;8.40;3.37;;;5.20;99.90;;;;;;4904527;29;20454;-68
2021/11/27 00:49:22;;;;;;;6.00;3.47;;;5.20;99.90;;;;;;4904691;29;20446;-65
2021/11/27 00:51:49;;;;;;;7.10;3.80;;;5.10;99.90;;;;;;4904572;29;20884;-65
2021/11/27 00:54:20;;;;;;;9.90;4.33;;;5.10;99.90;;;;;;4904781;29;20480;-64
2021/11/27 00:56:48;;;;;;;8.23;4.90;;;5.10;99.90;;;;;;4904219;29;20455;-65
2021/11/27 00:59:15;;;;;;;6.93;4.20;;;5.20;99.90;;;;;;4904463;29;20447;-65
2021/11/27 01:01:43;;;;;;;10.40;3.77;;;5.20;99.90;;;;;;4904590;29;20522;-62
2021/11/27 01:04:11;;;;;;;7.83;4.50;;;5.20;99.90;;;;;;4905355;29;20485;-68
2021/11/27 01:06:38;;;;;;;11.27;5.40;;;5.10;99.90;;;;;;4905869;29;20454;-65
2021/11/27 01:09:08;;;;;;;8.77;3.70;;;5.10;99.90;;;;;;4904783;29;20442;-63
2021/11/27 01:11:41;;;;;;;7.67;4.83;;;5.00;99.90;;;;;;4906456;29;20471;-65
2021/11/27 01:14:11;;;;;;;12.27;5.00;;;4.90;99.90;;;;;;4904132;29;20498;-60
2021/11/27 01:16:41;;;;;;;11.67;4.40;;;4.90;99.90;;;;;;4904116;29;20482;-64
2021/11/27 01:19:10;;;;;;;8.03;4.40;;;4.90;99.90;;;;;;4903966;29;20536;-64
2021/11/27 01:21:42;;;;;;;9.00;4.30;;;4.90;99.90;;;;;;4903660;29;20545;-62
2021/11/27 01:24:11;;;;;;;10.33;4.83;;;4.90;99.90;;;;;;4904052;29;20466;-66
2021/11/27 01:26:40;;;;;;;5.20;3.57;;;4.90;99.90;;;;;;4903791;29;20470;-65
2021/11/27 01:29:07;;;;;;;8.37;3.43;;;4.90;99.90;;;;;;4904275;29;20560;-64
2021/11/27 01:31:35;;;;;;;8.33;4.67;;;4.80;99.90;;;;;;4904710;29;20525;-66
2021/11/27 01:34:04;;;;;;;6.23;4.40;;;4.70;99.90;;;;;;4905053;29;20475;-63
2021/11/27 01:36:31;;;;;;;7.87;3.47;;;4.70;99.90;;;;;;4903978;29;20458;-65
2021/11/27 01:38:58;;;;;;;8.93;3.57;;;4.60;99.90;;;;;;4903944;29;20550;-65
2021/11/27 01:41:25;;;;;;;11.33;4.47;;;4.60;99.90;;;;;;4904123;29;20501;-66
2021/11/27 01:43:54;;;;;;;6.93;4.10;;;4.50;99.90;;;;;;4903582;29;20462;-65
2021/11/27 01:46:21;;;;;;;5.07;3.17;;;4.50;99.90;;;;;;4904218;29;20499;-60
2021/11/27 01:48:48;;;;;;;7.67;4.97;;;4.50;99.90;;;;;;4905375;29;20470;-70
2021/11/27 01:51:18;;;;;;;7.83;4.20;;;4.50;99.90;;;;;;4904998;29;20483;-69
2021/11/27 01:53:51;;;;;;;4.60;3.27;;;4.40;99.90;;;;;;4903942;29;20541;-62
2021/11/27 01:56:22;;;;;;;20.47;4.13;;;4.40;99.90;;;;;;4904025;29;20506;-65
2021/11/27 01:58:49;;;;;;;7.87;3.90;;;4.40;99.90;;;;;;4903890;29;20524;-64
2021/11/27 02:01:20;;;;;;;7.07;3.87;;;4.30;99.90;;;;;;4903597;29;20828;-65
2021/11/27 02:03:49;;;;;;;7.83;3.13;;;4.30;99.90;;;;;;4903833;29;20640;-60
2021/11/27 02:06:18;;;;;;;7.50;5.50;;;4.30;99.90;;;;;;4903632;29;20434;-65
2021/11/27 02:08:47;;;;;;;19.53;7.43;;;4.30;99.90;;;;;;4903487;29;20482;-65
2021/11/27 02:11:16;;;;;;;9.50;5.20;;;4.20;99.90;;;;;;4903767;29;20570;-65
2021/11/27 02:13:43;;;;;;;8.23;4.50;;;4.20;99.90;;;;;;4904279;29;20497;-63
2021/11/27 02:16:10;;;;;;;6.13;3.67;;;4.20;99.90;;;;;;4905719;29;20510;-63
2021/11/27 02:18:38;;;;;;;11.87;5.47;;;4.10;99.90;;;;;;4904930;29;20474;-67
2021/11/27 02:21:10;;;;;;;8.30;3.83;;;4.10;99.90;;;;;;4905148;29;20540;-68
2021/11/27 02:23:38;;;;;;;9.93;4.00;;;4.10;99.90;;;;;;4904096;29;20514;-62
2021/11/27 02:26:08;;;;;;;7.10;4.23;;;4.10;99.90;;;;;;4903880;29;21012;-66
2021/11/27 02:28:40;;;;;;;4.40;4.00;;;4.10;99.90;;;;;;4903057;29;20688;-64
2021/11/27 02:31:07;;;;;;;5.00;2.83;;;4.00;99.90;;;;;;4903716;29;20467;-60
2021/11/27 02:33:34;;;;;;;5.83;4.07;;;4.10;99.90;;;;;;4903853;29;20518;-62
2021/11/27 02:36:02;;;;;;;7.27;3.87;;;4.10;99.90;;;;;;4903818;29;20603;-65
2021/11/27 02:38:30;;;;;;;14.67;5.07;;;4.10;99.90;;;;;;4902874;29;20490;-66
2021/11/27 02:40:57;;;;;;;8.03;5.00;;;4.00;99.90;;;;;;4904447;29;20510;-62
2021/11/27 02:43:24;;;;;;;10.07;4.60;;;4.00;99.90;;;;;;4905298;29;20450;-64
2021/11/27 02:45:51;;;;;;;7.47;3.67;;;4.00;99.90;;;;;;4903750;29;20458;-63
2021/11/27 02:48:18;;;;;;;7.53;4.10;;;4.00;99.90;;;;;;4902929;29;20483;-61
2021/11/27 02:50:45;;;;;;;6.70;4.97;;;4.10;99.90;;;;;;4904216;29;20509;-64
2021/11/27 02:53:12;;;;;;;7.97;4.00;;;4.00;99.90;;;;;;4903764;29;20486;-62
2021/11/27 02:55:41;;;;;;;6.77;3.40;;;4.00;99.90;;;;;;4903299;29;20494;-64
2021/11/27 02:58:10;;;;;;;5.10;3.47;;;4.00;99.90;;;;;;4903793;29;20486;-64
2021/11/27 03:00:37;;;;;;;5.23;3.97;;;4.00;99.90;;;;;;4903236;29;20458;-67
2021/11/27 03:03:04;;;;;;;6.37;4.30;;;4.00;99.90;;;;;;4903133;29;20515;-62
2021/11/27 03:05:31;;;;;;;12.13;4.10;;;4.00;99.90;;;;;;4903445;29;20545;-64
2021/11/27 03:07:58;;;;;;;6.37;3.10;;;4.00;99.90;;;;;;4905141;29;20450;-64
2021/11/27 03:10:25;;;;;;;4.00;3.20;;;3.90;99.90;;;;;;4905378;29;20740;-61
2021/11/27 03:12:54;;;;;;;6.13;3.50;;;3.90;99.90;;;;;;4903750;29;20510;-66
2021/11/27 03:15:21;;;;;;;10.53;3.23;;;3.90;99.90;;;;;;4903146;29;20465;-62
2021/11/27 03:17:49;;;;;;;6.87;4.70;;;3.80;99.90;;;;;;4902848;29;20510;-66
2021/11/27 03:20:20;;;;;;;6.43;4.10;;;3.70;99.90;;;;;;4903085;29;20494;-66
2021/11/27 03:22:47;;;;;;;9.33;3.87;;;3.70;99.90;;;;;;4903244;29;20514;-66
2021/11/27 03:25:15;;;;;;;9.07;3.97;;;3.70;99.90;;;;;;4903222;29;20458;-59
2021/11/27 03:27:43;;;;;;;8.93;5.30;;;3.70;99.90;;;;;;4903119;29;20462;-65
2021/11/27 03:30:14;;;;;;;9.43;3.80;;;3.70;99.90;;;;;;4903098;29;20517;-64
2021/11/27 03:32:41;;;;;;;10.63;5.80;;;3.60;99.90;;;;;;4903717;29;20526;-67
2021/11/27 03:35:09;;;;;;;7.30;4.00;;;3.70;99.90;;;;;;4905066;29;20549;-67
2021/11/27 03:37:36;;;;;;;6.20;3.37;;;3.60;99.90;;;;;;4903203;29;20462;-61
2021/11/27 03:40:04;;;;;;;7.80;4.30;;;3.60;99.90;;;;;;4903829;29;20529;-61
2021/11/27 03:42:32;;;;;;;7.47;3.93;;;3.60;99.90;;;;;;4902731;29;20486;-64
2021/11/27 03:44:59;;;;;;;7.77;4.30;;;3.60;99.90;;;;;;4902585;29;20513;-66
2021/11/27 03:47:27;;;;;;;9.40;3.80;;;3.70;99.90;;;;;;4902679;29;20565;-66
2021/11/27 03:49:54;;;;;;;8.43;3.50;;;3.60;99.90;;;;;;4903633;29;20533;-66
2021/11/27 03:52:22;;;;;;;7.53;3.33;;;3.60;99.90;;;;;;4908121;29;20479;-68
2021/11/27 03:54:50;;;;;;;9.70;4.03;;;3.60;99.90;;;;;;4907589;29;20525;-57
2021/11/27 03:57:17;;;;;;;6.97;3.03;;;3.60;99.90;;;;;;4906550;29;20460;-61
2021/11/27 03:59:45;;;;;;;6.27;3.77;;;3.60;99.90;;;;;;4906983;29;20490;-65
2021/11/27 04:02:12;;;;;;;8.60;4.20;;;3.60;99.90;;;;;;4906713;29;20470;-66
2021/11/27 04:04:42;;;;;;;8.53;5.20;;;3.50;99.90;;;;;;4906171;29;20502;-66
2021/11/27 04:07:09;;;;;;;5.50;4.00;;;3.50;99.90;;;;;;4906901;29;20466;-65
2021/11/27 04:09:36;;;;;;;8.13;3.43;;;3.50;99.90;;;;;;4906833;29;20526;-66
2021/11/27 04:12:04;;;;;;;6.80;4.10;;;3.50;99.90;;;;;;4906119;29;20526;-60
2021/11/27 04:14:31;;;;;;;6.20;3.60;;;3.60;99.90;;;;;;4906610;29;20549;-58
2021/11/27 04:16:58;;;;;;;9.37;3.13;;;3.60;99.90;;;;;;4906280;29;20458;-70
2021/11/27 04:19:25;;;;;;;5.77;3.70;;;3.60;99.90;;;;;;4907796;29;20454;-68
2021/11/27 04:21:53;;;;;;;6.97;3.40;;;3.70;99.90;;;;;;4906339;29;20517;-65
2021/11/27 04:24:20;;;;;;;8.77;4.10;;;3.70;99.90;;;;;;4906390;29;20506;-65
2021/11/27 04:26:47;;;;;;;10.53;4.70;;;3.70;99.90;;;;;;4906207;29;20501;-65
2021/11/27 04:29:14;;;;;;;4.60;2.97;;;3.70;99.90;;;;;;4907705;29;20486;-69
2021/11/27 04:31:41;;;;;;;10.57;4.00;;;3.70;99.90;;;;;;4907395;29;20490;-65
2021/11/27 04:34:08;;;;;;;7.43;3.97;;;3.60;99.90;;;;;;4905513;29;20454;-63
2021/11/27 04:36:35;;;;;;;10.40;4.97;;;3.70;99.90;;;;;;4905231;29;20515;-65
2021/11/27 04:39:04;;;;;;;8.43;3.87;;;3.80;99.90;;;;;;4905362;29;20454;-65
2021/11/27 04:41:31;;;;;;;8.47;4.57;;;3.80;99.90;;;;;;4905324;29;20991;-62
2021/11/27 04:43:58;;;;;;;6.90;3.47;;;3.70;99.90;;;;;;4905323;29;20493;-58
2021/11/27 04:46:25;;;;;;;8.43;3.50;;;3.80;99.90;;;;;;4905564;29;20482;-65
2021/11/27 04:48:52;;;;;;;19.90;3.70;;;3.80;99.90;;;;;;4905296;29;20510;-65
2021/11/27 04:51:19;;;;;;;4.33;3.40;;;3.80;99.90;;;;;;4905026;29;20988;-67
2021/11/27 04:53:46;;;;;;;5.53;3.73;;;3.80;99.90;;;;;;4905586;29;20534;-68
2021/11/27 04:56:14;;;;;;;6.17;3.90;;;3.80;99.90;;;;;;4907172;29;20454;-62
2021/11/27 04:58:41;;;;;;;4.10;2.90;;;3.80;99.90;;;;;;4907827;29;20485;-62
2021/11/27 05:01:08;;;;;;;7.80;4.13;;;3.70;99.90;;;;;;4906097;29;20569;-62
2021/11/27 05:03:35;;;;;;;9.80;5.67;;;3.80;99.90;;;;;;4906388;29;20531;-68
2021/11/27 05:06:02;;;;;;;7.90;4.13;;;3.80;99.90;;;;;;4906425;29;20481;-65
2021/11/27 05:08:29;;;;;;;7.80;4.53;;;3.80;99.90;;;;;;4905872;29;20751;-65
2021/11/27 05:10:56;;;;;;;5.60;3.50;;;3.90;99.90;;;;;;4905044;29;20941;-65
2021/11/27 05:13:25;;;;;;;9.30;5.30;;;3.90;99.90;;;;;;4905220;29;20470;-65
2021/11/27 05:15:51;;;;;;;11.80;4.90;;;4.00;99.90;;;;;;4911343;23;20962;-65
2021/11/27 05:18:18;;;;;;;7.00;3.97;;;4.00;99.90;;;;;;4904476;29;20541;-63
2021/11/27 05:20:46;;;;;;;8.20;4.27;;;4.00;99.90;;;;;;4912245;23;20846;-62
2021/11/27 05:23:12;;;;;;;6.03;4.07;;;4.00;99.90;;;;;;4905728;29;20521;-65
2021/11/27 05:25:39;;;;;;;8.90;5.17;;;4.00;99.90;;;;;;4906378;29;20520;-68
2021/11/27 05:28:06;;;;;;;11.60;5.37;;;4.00;99.90;;;;;;4912019;23;20541;-64
2021/11/27 05:30:35;;;;;;;10.63;5.13;;;3.90;99.90;;;;;;4904890;29;20533;-63
2021/11/27 05:33:13;;;;;;;11.70;4.10;;;3.90;99.90;;;;;;4895888;23;20499;-65
2021/11/27 05:35:41;;;;;;;8.73;5.10;;;3.90;99.90;;;;;;4885345;29;20946;-66
2021/11/27 05:38:09;;;;;;;7.27;3.63;;;3.80;99.90;;;;;;4922335;23;20540;-64
2021/11/27 05:40:38;;;;;;;13.07;3.80;;;3.90;99.90;;;;;;4904197;29;20470;-65
2021/11/27 05:43:05;;;;;;;21.00;4.77;;;3.80;99.90;;;;;;4911510;23;20489;-62
2021/11/27 05:45:34;;;;;;;10.40;5.37;;;3.90;99.90;;;;;;4904621;29;20454;-65
2021/11/27 05:48:03;;;;;;;6.30;3.00;;;3.90;99.90;;;;;;4900737;23;20586;-70
2021/11/27 05:50:30;;;;;;;5.87;3.50;;;3.90;99.90;;;;;;4887717;29;20933;-69
2021/11/27 05:52:57;;;;;;;19.70;4.70;;;3.90;99.90;;;;;;4903535;23;20600;-66
2021/11/27 05:55:24;;;;;;;12.60;4.60;;;3.90;99.90;;;;;;4904242;29;20506;-65
2021/11/27 05:57:51;;;;;;;9.90;6.27;;;4.00;99.90;;;;;;4911298;23;20525;-65
2021/11/27 06:00:18;;;;;;;14.23;5.83;;;3.90;99.90;;;;;;4903698;29;20518;-63
2021/11/27 06:02:47;;;;;;;5.67;3.30;;;4.00;99.90;;;;;;4911092;23;20502;-64
2021/11/27 06:05:14;;;;;;;16.73;5.37;;;3.90;99.90;;;;;;4904207;29;20467;-66
2021/11/27 06:07:41;;;;;;;11.00;5.57;;;3.90;99.90;;;;;;4910656;23;20503;-66
2021/11/27 06:10:09;;;;;;;11.73;6.00;;;3.90;99.90;;;;;;4904437;29;20521;-66
2021/11/27 06:12:36;;;;;;;5.87;4.43;;;3.90;99.90;;;;;;4912015;23;20539;-66
2021/11/27 06:15:05;;;;;;;11.97;6.17;;;3.90;99.90;;;;;;4903483;29;20473;-65
2021/11/27 06:17:32;;;;;;;8.77;3.63;;;3.90;99.90;;;;;;4904183;29;20454;-65
2021/11/27 06:20:00;;;;;;;9.17;4.33;;;3.90;99.90;;;;;;4911259;23;20857;-65
2021/11/27 06:22:27;;;;;;;13.67;5.40;;;3.90;99.90;;;;;;4903727;29;20530;-66
2021/11/27 06:24:54;;;;;;;7.30;3.63;;;3.90;99.90;;;;;;4918776;23;20521;-66
2021/11/27 06:27:21;;;;;;;9.60;5.20;;;3.80;99.90;;;;;;4904171;29;20459;-70
2021/11/27 06:29:49;;;;;;;15.00;6.57;;;3.80;99.90;;;;;;4910943;23;20571;-66
2021/11/27 06:32:21;;;;;;;8.43;4.73;;;3.80;99.90;;;;;;4903843;29;20505;-62
2021/11/27 06:34:48;;;;;;;10.83;5.27;;;3.80;99.90;;;;;;4910428;23;20519;-66
2021/11/27 06:37:17;;;;;;;9.73;6.37;;;3.80;99.90;;;;;;4903252;29;20439;-65
2021/11/27 06:39:43;;;;;;;10.67;5.90;;;3.80;99.90;;;;;;4909139;23;20466;-64
2021/11/27 06:42:10;;;;;;;11.77;5.87;;;3.80;99.90;;;;;;4885031;29;20471;-66
2021/11/27 06:47:05;;;;;;;18.73;6.57;;;3.80;99.90;;;;;;4908067;23;20490;-66
2021/11/27 06:49:33;;;;;;;11.50;6.27;;;3.70;99.90;;;;;;4903303;29;20494;-68
2021/11/27 06:51:59;;;;;;;18.80;7.50;;;3.80;99.90;;;;;;4903870;29;20518;-66
2021/11/27 06:54:28;;;;;;;12.70;7.60;;;3.80;99.90;;;;;;4903275;29;20450;-66
2021/11/27 06:56:55;;;;;;;15.33;6.07;;;3.90;99.90;;;;;;4918135;23;20513;-68
2021/11/27 06:59:22;;;;;;;9.30;5.20;;;3.90;99.90;;;;;;4903433;29;20537;-66
2021/11/27 07:01:48;;;;;;;14.00;5.63;;;3.80;99.90;;;;;;4910391;23;20544;-66
2021/11/27 07:04:18;;;;;;;12.67;5.50;;;3.80;99.90;;;;;;4903522;29;20489;-64
2021/11/27 07:06:45;;;;;;;12.37;6.43;;;3.80;99.90;;;;;;4926012;23;20490;-69
2021/11/27 07:09:12;;;;;;;11.73;6.73;;;3.80;99.90;;;;;;4904215;29;20477;-63
2021/11/27 07:14:08;;;;;;;19.37;7.13;;;3.90;99.90;;;;;;4864427;29;20799;-66
2021/11/27 07:16:35;;;;;;;7.80;5.10;;;4.00;99.90;;;;;;4866298;29;20524;-66
2021/11/27 07:19:02;;;;;;;10.27;6.00;;;4.00;99.90;;;;;;4906054;23;20525;-62
2021/11/27 07:21:29;;;;;;;12.10;5.50;;;4.10;99.90;;;;;;4902906;29;20842;-63
2021/11/27 07:24:00;;;;;;;12.73;6.00;;;4.20;99.90;;;;;;4911037;23;20502;-69
2021/11/27 07:26:27;;;;;;;15.17;5.83;;;4.30;99.90;;;;;;4906535;29;20489;-66
2021/11/27 07:28:57;;;;;;;13.23;7.70;;;4.20;99.90;;;;;;4913271;23;20908;-66
2021/11/27 07:31:26;;;;;;;14.87;6.70;;;4.20;99.90;;;;;;4906992;29;20466;-64
2021/11/27 07:33:53;;;;;;;13.30;6.90;;;4.30;99.90;;;;;;4914672;23;20542;-66
2021/11/27 07:36:21;;;;;;;19.37;8.17;;;4.40;99.90;;;;;;4906696;29;20486;-67
2021/11/27 07:38:50;;;;;;;12.63;5.57;;;4.40;99.90;;;;;;4913516;23;20574;-66
2021/11/27 07:41:17;;;;;;;11.70;5.90;;;4.30;99.90;;;;;;4906591;29;20518;-63
2021/11/27 07:43:44;;;;;;;12.13;7.27;;;4.40;99.90;;;;;;4915421;23;20536;-61
2021/11/27 07:46:12;;;;;;;8.70;6.13;;;4.40;99.90;;;;;;4910527;29;20505;-63
2021/11/27 07:48:40;;;;;;;13.50;7.17;;;4.40;99.90;;;;;;4918087;23;20498;-64
2021/11/27 07:51:07;;;;;;;16.50;7.67;;;4.40;99.90;;;;;;4912026;29;20493;-69
2021/11/27 07:53:36;;;;;;;11.90;7.40;;;4.30;99.90;;;;;;4915714;23;20490;-68
2021/11/27 07:56:03;;;;;;;12.17;6.20;;;4.40;99.90;;;;;;4892916;29;20508;-63
2021/11/27 07:58:30;;;;;;;12.30;6.97;;;4.50;99.90;;;;;;4900550;23;20474;-64
2021/11/27 08:00:57;;;;;;;15.70;6.73;;;4.50;99.90;;;;;;4892531;29;20482;-61
2021/11/27 08:03:24;;;;;;;20.63;8.57;;;4.60;99.90;;;;;;4891731;29;20498;-58
2021/11/27 08:05:53;;;;;;;17.07;7.80;;;4.70;99.90;;;;;;4915925;23;20490;-59
2021/11/27 08:08:20;;;;;;;27.07;10.60;;;4.70;99.90;;;;;;4910364;29;20912;-66
2021/11/27 08:10:47;;;;;;;14.70;7.90;;;4.80;99.90;;;;;;4928837;23;20498;-66
2021/11/27 08:13:14;;;;;;;19.07;8.90;;;4.90;99.90;;;;;;4908691;29;20438;-66
2021/11/27 08:15:41;;;;;;;17.13;7.70;;;5.00;99.90;;;;;;4915476;23;20525;-65
2021/11/27 08:18:08;;;;;;;21.70;7.80;;;5.10;99.90;;;;;;4908748;29;20813;-65
2021/11/27 08:20:35;;;;;;;24.17;9.03;;;5.20;99.90;;;;;;4915789;23;20561;-66
2021/11/27 08:23:05;;;;;;;15.70;8.10;;;5.20;99.90;;;;;;4908666;29;20557;-65
2021/11/27 08:25:32;;;;;;;13.80;8.17;;;5.10;99.90;;;;;;4916007;23;20458;-61
2021/11/27 08:27:59;;;;;;;20.30;8.10;;;5.20;99.90;;;;;;4909860;29;20510;-66
2021/11/27 08:32:55;;;;;;;14.27;7.00;;;5.30;99.90;;;;;;4894444;23;20878;-67
2021/11/27 08:35:22;;;;;;;26.37;8.77;;;5.30;99.90;;;;;;4890563;29;20435;-68
2021/11/27 08:37:49;;;;;;;26.23;11.07;;;5.30;99.90;;;;;;4924053;23;20976;-66
2021/11/27 08:40:17;;;;;;;16.57;6.90;;;5.40;99.90;;;;;;4905763;29;20474;-65
2021/11/27 08:42:44;;;;;;;14.63;7.30;;;5.50;99.90;;;;;;4915647;23;20561;-48
2021/11/27 08:45:12;;;;;;;16.10;6.87;;;5.50;99.90;;;;;;4910542;29;20462;-49
2021/11/27 08:47:39;;;;;;;15.67;7.93;;;5.50;99.90;;;;;;4910206;29;20435;-48
2021/11/27 08:50:08;;;;;;;12.27;6.60;;;5.50;99.90;;;;;;4910388;29;20446;-49
2021/11/27 08:52:35;;;;;;;14.10;6.83;;;5.40;99.90;;;;;;4911375;29;20507;-50
2021/11/27 08:55:03;;;;;;;10.83;6.30;;;5.30;99.90;;;;;;4921218;29;20948;-47
2021/11/27 08:57:31;;;;;;;12.57;7.53;;;5.30;99.90;;;;;;4917392;29;20502;-50
2021/11/27 08:59:58;;;;;;;22.73;9.53;;;5.30;99.90;;;;;;4909747;29;20449;-51
2021/11/27 09:02:25;;;;;;;13.80;8.47;;;5.40;99.90;;;;;;4910058;29;20462;-51
2021/11/27 09:04:52;;;;;;;18.37;7.50;;;5.40;99.90;;;;;;4909229;29;20486;-50
2021/11/27 09:07:19;;;;;;;23.53;9.10;;;5.40;99.90;;;;;;4909051;29;20523;-52
2021/11/27 09:09:47;;;;;;;14.20;7.40;;;5.40;99.90;;;;;;4909648;29;20541;-53
2021/11/27 09:12:19;;;;;;;20.27;9.07;;;5.30;99.90;;;;;;4909466;29;20470;-48
2021/11/27 09:14:49;;;;;;;16.40;7.27;;;5.20;99.90;;;;;;4907337;29;20434;-47
2021/11/27 09:17:16;;;;;;;18.07;8.53;;;5.20;99.90;;;;;;4904194;29;20443;-50
2021/11/27 09:19:54;;;;;;;19.43;8.03;;;5.20;99.90;;;;;;4912756;23;20501;-50
2021/11/27 09:22:21;;;;;;;16.87;7.20;;;5.20;99.90;;;;;;4911821;29;20478;-49
2021/11/27 09:24:51;;;;;;;15.87;7.37;;;5.10;99.90;;;;;;4923214;23;20487;-49
2021/11/27 09:27:18;;;;;;;16.20;7.10;;;5.00;99.90;;;;;;4914526;29;20494;-50
2021/11/27 09:29:45;;;;;;;16.63;8.77;;;5.10;99.90;;;;;;4915331;23;20463;-50
2021/11/27 09:32:15;;;;;;;15.73;7.80;;;5.20;99.90;;;;;;4909164;29;20475;-50
2021/11/27 09:37:19;;;;;;;15.87;7.43;;;5.30;99.90;;;;;;4918696;23;20482;-46
2021/11/27 09:39:47;;;;;;;15.17;7.57;;;5.20;99.90;;;;;;4917537;29;20467;-51
2021/11/27 09:42:22;;;;;;;13.53;8.17;;;5.20;99.90;;;;;;4908126;23;20502;-51
2021/11/27 09:44:51;;;;;;;21.97;7.53;;;5.20;99.90;;;;;;4899827;29;20471;-50
2021/11/27 09:47:20;;;;;;;15.43;7.10;;;5.20;99.90;;;;;;4938979;23;20491;-51
2021/11/27 09:49:48;;;;;;;12.50;7.03;;;5.20;99.90;;;;;;4915364;29;20449;-51
2021/11/27 09:52:16;;;;;;;18.87;7.87;;;5.20;99.90;;;;;;4917288;23;20486;-49
2021/11/27 09:54:46;;;;;;;15.20;8.20;;;5.40;99.90;;;;;;4916254;29;20462;-47
2021/11/27 09:57:13;;;;;;;16.37;8.47;;;5.40;99.90;;;;;;4924608;23;20714;-48
2021/11/27 09:59:42;;;;;;;15.10;7.30;;;5.40;99.90;;;;;;4890702;29;20508;-48
2021/11/27 10:02:13;;;;;;;16.90;7.43;;;5.30;99.90;;;;;;4905403;23;20522;-51
2021/11/27 10:04:49;;;;;;;13.87;7.20;;;5.30;99.90;;;;;;4903351;29;20490;-48
2021/11/27 10:07:18;;;;;;;16.57;7.43;;;5.40;99.90;;;;;;4925285;23;20491;-47
2021/11/27 10:09:46;;;;;;;19.30;8.10;;;5.40;99.90;;;;;;4898106;29;20444;-55
2021/11/27 10:12:14;;;;;;;17.87;8.67;;;5.50;99.90;;;;;;4913166;23;20505;-53
2021/11/27 10:14:42;;;;;;;21.00;9.00;;;5.60;99.90;;;;;;4917411;29;20475;-48
2021/11/27 10:17:13;;;;;;;14.37;8.30;;;5.70;99.90;;;;;;4922756;23;20489;-52
2021/11/27 10:19:54;;;;;;;23.27;9.40;;;5.70;99.90;;;;;;4917427;29;20457;-48
2021/11/27 10:22:25;;;;;;;16.37;10.13;;;5.70;99.90;;;;;;4910289;23;20527;-47
2021/11/27 10:24:52;;;;;;;23.23;11.00;;;5.70;99.90;;;;;;4900719;29;20463;-47
2021/11/27 10:27:23;;;;;;;17.00;9.57;;;5.70;99.90;;;;;;4898280;23;20566;-49
2021/11/27 10:30:01;;;;;;;16.40;8.53;;;5.80;99.90;;;;;;4896780;29;20459;-50
2021/11/27 10:32:35;;;;;;;15.93;7.83;;;5.80;99.90;;;;;;4903463;23;20527;-48
2021/11/27 10:35:06;;;;;;;15.60;7.53;;;5.80;99.90;;;;;;4908061;29;20486;-53
2021/11/27 10:37:38;;;;;;;20.27;8.07;;;5.90;99.90;;;;;;4914705;23;20518;-52
2021/11/27 10:40:08;;;;;;;13.00;7.60;;;5.80;99.90;;;;;;4905512;29;20498;-47
2021/11/27 10:42:58;;;;;;;19.73;8.43;;;5.80;99.90;;;;;;4921824;23;20435;-45
2021/11/27 10:45:26;;;;;;;14.17;8.03;;;5.80;99.90;;;;;;4907868;29;20463;-49
2021/11/27 10:48:11;;;;;;;11.10;6.53;;;5.70;99.90;;;;;;4916180;23;20528;-51
2021/11/27 10:50:41;;;;;;;11.40;6.03;;;5.70;99.90;;;;;;4891769;29;20435;-49
2021/11/27 10:53:13;;;;;;;11.63;6.67;;;5.60;99.90;;;;;;4899724;23;20487;-53
2021/11/27 10:55:40;;;;;;;9.43;6.40;;;5.50;99.90;;;;;;4912049;29;20439;-49
2021/11/27 10:58:09;;;;;;;11.70;7.77;;;5.50;99.90;;;;;;4917660;23;20458;-50
2021/11/27 11:00:40;;;;;;;17.40;6.97;;;5.50;99.90;;;;;;4918959;29;20463;-48
2021/11/27 11:03:24;;;;;;;15.07;7.00;;;5.50;99.90;;;;;;4931654;23;20478;-49
2021/11/27 11:05:55;;;;;;;11.67;8.43;;;5.40;99.90;;;;;;4903587;29;20458;-49
2021/11/27 11:08:32;;;;;;;15.47;7.10;;;5.40;99.90;;;;;;4900468;23;20485;-50
2021/11/27 11:11:00;;;;;;;13.80;6.53;;;5.40;99.90;;;;;;4876327;29;20451;-51
2021/11/27 11:15:52;;;;;;;12.87;7.80;;;5.30;99.90;;;;;;4925464;23;20490;-45
2021/11/27 11:18:21;;;;;;;17.60;7.63;;;5.30;99.90;;;;;;4907035;29;20230;-51
2021/11/27 11:20:50;;;;;;;12.83;6.23;;;5.20;99.90;;;;;;4926562;23;20493;-51
2021/11/27 11:23:22;;;;;;;15.87;6.60;;;5.20;99.90;;;;;;4913722;29;20478;-49
2021/11/27 11:25:58;;;;;;;18.00;7.93;;;5.20;99.90;;;;;;4920769;23;20501;-49
2021/11/27 11:28:27;;;;;;;17.20;7.60;;;5.30;99.90;;;;;;4929723;29;20951;-50
2021/11/27 11:30:56;;;;;;;14.43;8.03;;;5.30;99.90;;;;;;4912546;23;20485;-50
2021/11/27 11:33:25;;;;;;;12.47;6.90;;;5.30;99.90;;;;;;4928888;29;20454;-51
2021/11/27 11:35:52;;;;;;;16.53;9.17;;;5.30;99.90;;;;;;4919116;23;20506;-52
2021/11/27 11:38:21;;;;;;;23.27;10.43;;;5.40;99.90;;;;;;4900452;29;20435;-50
2021/11/27 11:40:49;;;;;;;10.87;6.93;;;5.40;99.90;;;;;;4927775;23;20508;-44
2021/11/27 11:43:16;;;;;;;14.40;7.97;;;5.40;99.90;;;;;;4922065;29;20573;-45
2021/11/27 11:45:46;;;;;;;15.80;8.67;;;5.50;99.90;;;;;;4924115;23;20513;-51
2021/11/27 11:48:20;;;;;;;12.50;7.50;;;5.50;99.90;;;;;;4889669;29;20519;-49
2021/11/27 11:53:25;;;;;;;16.20;9.13;;;5.50;99.90;;;;;;4913145;23;20497;-53
2021/11/27 11:55:55;;;;;;;16.53;7.00;;;5.60;99.90;;;;;;4908582;29;20768;-48
2021/11/27 11:58:30;;;;;;;15.97;8.00;;;5.60;99.90;;;;;;4918880;23;20501;-49
2021/11/27 12:01:00;;;;;;;14.63;7.60;;;5.60;99.90;;;;;;4920673;29;20532;-51
2021/11/27 12:03:32;;;;;;;21.10;7.43;;;5.60;99.90;;;;;;4919478;23;20500;-53
2021/11/27 12:06:08;;;;;;;16.63;7.90;;;5.70;99.90;;;;;;4909110;29;20474;-54
2021/11/27 12:09:03;;;;;;;13.80;7.63;;;5.70;99.90;;;;;;4929537;23;20572;-52
2021/11/27 12:14:45;;;;;;;16.70;9.13;;;5.80;99.90;;;;;;4909913;23;20501;-47
2021/11/27 12:17:16;;;;;;;15.57;6.83;;;5.80;99.90;;;;;;4912100;23;20555;-46
2021/11/27 12:19:46;;;;;;;16.80;8.20;;;5.80;99.90;;;;;;4905029;29;20488;-49
2021/11/27 12:22:38;;;;;;;22.33;9.77;;;5.70;99.90;;;;;;4913395;23;20466;-54
2021/11/27 12:25:11;;;;;;;14.67;9.40;;;5.70;99.90;;;;;;4916909;23;20489;-57
2021/11/27 12:30:58;;;;;;;16.43;7.67;;;5.70;99.90;;;;;;4914077;23;20497;-51
2021/11/27 12:33:59;;;;;;;15.70;7.27;;;5.70;99.90;;;;;;4916335;23;20943;-48
2021/11/27 12:36:47;;;;;;;15.20;7.80;;;5.70;99.90;;;;;;4872726;29;20456;-47
2021/11/27 12:39:17;;;;;;;21.03;9.80;;;5.80;99.90;;;;;;4884263;23;20483;-47
2021/11/27 12:41:47;;;;;;;12.37;7.63;;;5.80;99.90;;;;;;4893708;29;20451;-49
2021/11/27 12:44:21;;;;;;;20.57;8.13;;;5.80;99.90;;;;;;4896833;23;20816;-47
2021/11/27 12:46:50;;;;;;;14.30;6.80;;;5.70;99.90;;;;;;4889706;29;20460;-51
2021/11/27 12:49:52;;;;;;;16.57;8.23;;;5.60;99.90;;;;;;4899458;23;20479;-49
2021/11/27 12:52:31;;;;;;;13.07;7.20;;;5.50;99.90;;;;;;4913099;29;20534;-51
2021/11/27 12:55:33;;;;;;;16.77;8.30;;;5.40;99.90;;;;;;4919384;23;21103;-48
2021/11/27 12:58:23;;;;;;;13.07;7.13;;;5.30;99.90;;;;;;4909014;29;20435;-51
2021/11/27 13:00:51;;;;;;;20.13;7.30;;;5.10;99.90;;;;;;4905803;23;20517;-47
2021/11/27 13:03:18;;;;;;;12.83;8.00;;;5.10;99.90;;;;;;4894991;29;20495;-47
2021/11/27 13:05:45;;;;;;;20.80;9.67;;;5.10;99.90;;;;;;4918806;23;20494;-46
2021/11/27 13:08:25;;;;;;;15.43;8.30;;;5.10;99.90;;;;;;4911819;29;20479;-50
2021/11/27 13:10:53;;;;;;;12.67;8.27;;;5.00;99.90;;;;;;4917916;23;20438;-50
2021/11/27 13:13:23;;;;;;;13.90;8.03;;;4.90;99.90;;;;;;4909430;29;20463;-54
2021/11/27 13:18:18;;;;;;;17.87;8.10;;;4.90;99.90;;;;;;4857065;23;20481;-50
2021/11/27 13:20:50;;;;;;;23.10;10.57;;;4.90;99.90;;;;;;4848974;29;20492;-50
2021/11/27 13:23:29;;;;;;;14.57;7.00;;;4.90;99.90;;;;;;4890087;23;20506;-55